THY5JB LTFM-LHBP
Flight info
| Callsign | THY5JB |
|---|---|
| Flight time | 1h 33m |
| Altitude | 36000 |
| Route | TUDBU1E/36 TUDBU Q26 ETUBA DCT DEGET DCT KEZAL |
| Aircraft | B77W/H-SDE1E2E3FGHIJ2J3J4J5M1RWXY/LB1D1 |
Departure
| Time | 2026-05-04 15:20 |
|---|---|
| Airport | İstanbul Airport (LTFM) |
Arrival
| Time | 2026-05-04 16:53 |
|---|---|
| Airport | Budapest Liszt Ferenc International Airport (LHBP) |
| Time | Latitude | Longitude | Altitude | Speed | Heading |
|---|---|---|---|---|---|
| 2026-05-04 14:50 | 41.26128 | 28.74905 | 339 ft | 0 kts | 254° |
| 2026-05-04 15:12 | 41.26131 | 28.74921 | 333 ft | 4 kts | 259° |
| 2026-05-04 15:12 | 41.26133 | 28.74955 | 333 ft | 4 kts | 277° |
| 2026-05-04 15:12 | 41.26128 | 28.74988 | 333 ft | 4 kts | 295° |
| 2026-05-04 15:12 | 41.26115 | 28.75016 | 333 ft | 4 kts | 314° |
| 2026-05-04 15:13 | 41.26096 | 28.75037 | 333 ft | 4 kts | 336° |
| 2026-05-04 15:13 | 41.26090 | 28.75040 | 333 ft | 4 kts | 341° |
| 2026-05-04 15:16 | 41.26108 | 28.75032 | 333 ft | 7 kts | 341° |
| 2026-05-04 15:17 | 41.26185 | 28.75000 | 333 ft | 15 kts | 352° |
| 2026-05-04 15:17 | 41.26243 | 28.75195 | 339 ft | 19 kts | 88° |
| 2026-05-04 15:17 | 41.26247 | 28.75413 | 339 ft | 28 kts | 89° |
| 2026-05-04 15:18 | 41.26250 | 28.75544 | 339 ft | 10 kts | 88° |
| 2026-05-04 15:18 | 41.26254 | 28.75615 | 334 ft | 7 kts | 75° |
| 2026-05-04 15:18 | 41.26295 | 28.75659 | 336 ft | 7 kts | 17° |
| 2026-05-04 15:19 | 41.26314 | 28.75662 | 337 ft | 0 kts | 2° |
| 2026-05-04 15:19 | 41.26809 | 28.75655 | 335 ft | 109 kts | 359° |
| 2026-05-04 15:20 | 41.27817 | 28.75609 | 398 ft | 171 kts | 356° |
| 2026-05-04 15:20 | 41.29034 | 28.75564 | 1238 ft | 165 kts | 2° |
| 2026-05-04 15:20 | 41.30069 | 28.76071 | 2286 ft | 163 kts | 31° |
| 2026-05-04 15:20 | 41.31061 | 28.76916 | 2826 ft | 182 kts | 28° |
| 2026-05-04 15:21 | 41.32254 | 28.77850 | 3097 ft | 216 kts | 27° |
| 2026-05-04 15:21 | 41.33589 | 28.78886 | 3840 ft | 226 kts | 27° |
| 2026-05-04 15:21 | 41.36363 | 28.81023 | 5858 ft | 233 kts | 26° |
| 2026-05-04 15:22 | 41.37777 | 28.82067 | 6871 ft | 230 kts | 19° |
| 2026-05-04 15:22 | 41.39338 | 28.82445 | 7661 ft | 236 kts | 359° |
| 2026-05-04 15:22 | 41.42722 | 28.82055 | 8057 ft | 249 kts | 355° |
| 2026-05-04 15:23 | 41.44452 | 28.81829 | 8845 ft | 250 kts | 356° |
| 2026-05-04 15:23 | 41.46185 | 28.81603 | 9872 ft | 250 kts | 357° |
| 2026-05-04 15:23 | 41.47934 | 28.81381 | 10596 ft | 260 kts | 358° |
| 2026-05-04 15:23 | 41.49843 | 28.81144 | 10832 ft | 290 kts | 358° |
| 2026-05-04 15:24 | 41.54168 | 28.80607 | 11913 ft | 326 kts | 358° |
| 2026-05-04 15:24 | 41.58779 | 28.79776 | 13833 ft | 348 kts | 344° |
| 2026-05-04 15:25 | 41.60918 | 28.78114 | 14688 ft | 366 kts | 324° |
| 2026-05-04 15:25 | 41.62654 | 28.75570 | 15708 ft | 379 kts | 308° |
| 2026-05-04 15:25 | 41.63776 | 28.72305 | 16659 ft | 392 kts | 294° |
| 2026-05-04 15:26 | 41.65682 | 28.65358 | 18509 ft | 405 kts | 295° |
| 2026-05-04 15:26 | 41.66688 | 28.61807 | 19341 ft | 412 kts | 293° |
| 2026-05-04 15:26 | 41.67170 | 28.53971 | 20891 ft | 437 kts | 273° |
| 2026-05-04 15:27 | 41.67126 | 28.49865 | 21648 ft | 443 kts | 274° |
| 2026-05-04 15:27 | 41.68055 | 28.42669 | 22912 ft | 434 kts | 300° |
| 2026-05-04 15:28 | 41.70653 | 28.35236 | 24223 ft | 447 kts | 301° |
| 2026-05-04 15:28 | 41.71945 | 28.31428 | 24975 ft | 449 kts | 300° |
| 2026-05-04 15:28 | 41.74482 | 28.23712 | 26337 ft | 458 kts | 299° |
| 2026-05-04 15:29 | 41.75757 | 28.19778 | 26959 ft | 462 kts | 298° |
| 2026-05-04 15:30 | 41.81497 | 28.04162 | 29357 ft | 469 kts | 312° |
| 2026-05-04 15:30 | 41.87653 | 27.93805 | 30815 ft | 478 kts | 312° |
| 2026-05-04 15:31 | 41.91672 | 27.86716 | 32129 ft | 474 kts | 311° |
| 2026-05-04 15:31 | 41.93642 | 27.83182 | 32775 ft | 471 kts | 310° |
| 2026-05-04 15:32 | 41.99617 | 27.73221 | 34343 ft | 465 kts | 317° |
| 2026-05-04 15:32 | 42.03433 | 27.68119 | 35053 ft | 464 kts | 319° |
| 2026-05-04 15:33 | 42.08783 | 27.61075 | 36020 ft | 464 kts | 317° |
| 2026-05-04 15:34 | 42.14872 | 27.52798 | 36044 ft | 464 kts | 317° |
| 2026-05-04 15:34 | 42.21617 | 27.43475 | 36046 ft | 463 kts | 316° |
| 2026-05-04 15:35 | 42.28378 | 27.34106 | 36043 ft | 464 kts | 316° |
| 2026-05-04 15:36 | 42.35106 | 27.24759 | 36042 ft | 465 kts | 316° |
| 2026-05-04 15:36 | 42.39609 | 27.18487 | 36038 ft | 465 kts | 316° |
| 2026-05-04 15:37 | 42.44105 | 27.12211 | 36035 ft | 464 kts | 316° |
| 2026-05-04 15:37 | 42.48603 | 27.05917 | 36033 ft | 464 kts | 316° |
| 2026-05-04 15:38 | 42.53074 | 26.99647 | 36028 ft | 463 kts | 316° |
| 2026-05-04 15:38 | 42.57546 | 26.93363 | 36029 ft | 462 kts | 316° |
| 2026-05-04 15:39 | 42.62004 | 26.87084 | 36025 ft | 462 kts | 316° |
| 2026-05-04 15:40 | 42.68675 | 26.77662 | 36028 ft | 462 kts | 316° |
| 2026-05-04 15:40 | 42.73125 | 26.71360 | 36021 ft | 462 kts | 316° |
| 2026-05-04 15:41 | 42.77569 | 26.65052 | 36030 ft | 463 kts | 316° |
| 2026-05-04 15:41 | 42.82034 | 26.58708 | 36028 ft | 463 kts | 316° |
| 2026-05-04 15:42 | 42.86603 | 26.52584 | 36030 ft | 464 kts | 318° |
| 2026-05-04 15:42 | 42.91299 | 26.46470 | 36025 ft | 465 kts | 319° |
| 2026-05-04 15:43 | 42.95940 | 26.40389 | 36053 ft | 465 kts | 318° |
| 2026-05-04 15:43 | 43.00617 | 26.34199 | 36028 ft | 466 kts | 317° |
| 2026-05-04 15:44 | 43.05258 | 26.28028 | 36036 ft | 466 kts | 317° |
| 2026-05-04 15:44 | 43.09897 | 26.21842 | 36049 ft | 465 kts | 317° |
| 2026-05-04 15:45 | 43.14528 | 26.15650 | 36050 ft | 465 kts | 317° |
| 2026-05-04 15:45 | 43.19125 | 26.09492 | 36027 ft | 465 kts | 317° |
| 2026-05-04 15:46 | 43.23743 | 26.03296 | 36045 ft | 464 kts | 317° |
| 2026-05-04 15:46 | 43.28348 | 25.97102 | 36042 ft | 463 kts | 316° |
| 2026-05-04 15:47 | 43.32941 | 25.90911 | 36046 ft | 462 kts | 316° |
| 2026-05-04 15:47 | 43.37522 | 25.84722 | 36049 ft | 461 kts | 316° |
| 2026-05-04 15:48 | 43.42083 | 25.78546 | 36047 ft | 460 kts | 316° |
| 2026-05-04 15:48 | 43.48912 | 25.69275 | 36047 ft | 459 kts | 316° |
| 2026-05-04 15:49 | 43.53446 | 25.63100 | 36046 ft | 458 kts | 316° |
| 2026-05-04 15:49 | 43.57972 | 25.56922 | 36051 ft | 457 kts | 316° |
| 2026-05-04 15:50 | 43.62488 | 25.50746 | 36052 ft | 457 kts | 316° |
| 2026-05-04 15:50 | 43.67003 | 25.44557 | 36053 ft | 458 kts | 316° |
| 2026-05-04 15:51 | 43.71515 | 25.38358 | 36052 ft | 457 kts | 316° |
| 2026-05-04 15:51 | 43.76023 | 25.32151 | 36057 ft | 457 kts | 316° |
| 2026-05-04 15:52 | 43.80524 | 25.25939 | 36058 ft | 456 kts | 315° |
| 2026-05-04 15:52 | 43.85017 | 25.19725 | 36059 ft | 456 kts | 315° |
| 2026-05-04 15:53 | 43.89496 | 25.13514 | 36059 ft | 456 kts | 315° |
| 2026-05-04 15:53 | 43.93975 | 25.07288 | 36057 ft | 455 kts | 315° |
| 2026-05-04 15:54 | 43.98440 | 25.01072 | 36059 ft | 455 kts | 315° |
| 2026-05-04 15:54 | 44.02901 | 24.94845 | 36057 ft | 454 kts | 315° |
| 2026-05-04 15:55 | 44.07357 | 24.88612 | 36059 ft | 454 kts | 315° |
| 2026-05-04 15:55 | 44.11798 | 24.82386 | 36049 ft | 453 kts | 315° |
| 2026-05-04 15:56 | 44.16232 | 24.76154 | 36050 ft | 452 kts | 315° |
| 2026-05-04 15:56 | 44.20652 | 24.69928 | 36050 ft | 452 kts | 315° |
| 2026-05-04 15:57 | 44.25085 | 24.63670 | 36048 ft | 453 kts | 315° |
| 2026-05-04 15:57 | 44.29515 | 24.57404 | 36044 ft | 454 kts | 315° |
| 2026-05-04 15:58 | 44.33944 | 24.51123 | 36045 ft | 455 kts | 315° |
| 2026-05-04 15:58 | 44.38384 | 24.44812 | 36042 ft | 456 kts | 315° |
| 2026-05-04 15:59 | 44.42827 | 24.38481 | 36041 ft | 456 kts | 314° |
| 2026-05-04 15:59 | 44.47271 | 24.32136 | 36042 ft | 456 kts | 315° |
| 2026-05-04 16:00 | 44.51720 | 24.25767 | 36037 ft | 456 kts | 314° |
| 2026-05-04 16:00 | 44.56159 | 24.19399 | 36036 ft | 456 kts | 314° |
| 2026-05-04 16:01 | 44.60591 | 24.13027 | 36033 ft | 457 kts | 314° |
| 2026-05-04 16:01 | 44.65023 | 24.06639 | 36034 ft | 457 kts | 314° |
| 2026-05-04 16:02 | 44.69455 | 24.00236 | 36033 ft | 457 kts | 314° |
| 2026-05-04 16:03 | 44.76079 | 23.90638 | 36033 ft | 458 kts | 314° |
| 2026-05-04 16:03 | 44.80508 | 23.84202 | 36033 ft | 458 kts | 314° |
| 2026-05-04 16:04 | 44.84932 | 23.77757 | 36029 ft | 459 kts | 315° |
| 2026-05-04 16:04 | 44.91590 | 23.68029 | 36008 ft | 459 kts | 315° |
| 2026-05-04 16:05 | 44.96007 | 23.61559 | 36024 ft | 458 kts | 315° |
| 2026-05-04 16:06 | 45.02624 | 23.51836 | 36036 ft | 457 kts | 315° |
| 2026-05-04 16:07 | 45.11412 | 23.38867 | 36040 ft | 456 kts | 315° |
| 2026-05-04 16:08 | 45.20163 | 23.25892 | 36043 ft | 455 kts | 315° |
| 2026-05-04 16:09 | 45.31077 | 23.09623 | 36064 ft | 455 kts | 315° |
| 2026-05-04 16:10 | 45.39777 | 22.96586 | 36069 ft | 454 kts | 315° |
| 2026-05-04 16:11 | 45.48462 | 22.83506 | 36071 ft | 454 kts | 315° |
| 2026-05-04 16:12 | 45.61435 | 22.63853 | 36072 ft | 453 kts | 315° |
| 2026-05-04 16:13 | 45.69324 | 22.51832 | 36075 ft | 452 kts | 315° |
| 2026-05-04 16:14 | 45.77898 | 22.38707 | 36073 ft | 451 kts | 315° |
| 2026-05-04 16:16 | 45.88554 | 22.22305 | 36071 ft | 451 kts | 315° |
| 2026-05-04 16:17 | 45.99266 | 22.05717 | 36076 ft | 451 kts | 315° |
| 2026-05-04 16:18 | 46.07756 | 21.92497 | 36075 ft | 451 kts | 315° |
| 2026-05-04 16:19 | 46.18394 | 21.75843 | 36071 ft | 450 kts | 315° |
| 2026-05-04 16:20 | 46.28961 | 21.59196 | 36071 ft | 449 kts | 315° |
| 2026-05-04 16:22 | 46.33177 | 21.52526 | 36072 ft | 449 kts | 315° |
| 2026-05-04 16:25 | 46.41926 | 21.38629 | 36074 ft | 449 kts | 315° |
| 2026-05-04 16:26 | 46.56704 | 21.15389 | 36066 ft | 440 kts | 316° |
| 2026-05-04 16:27 | 46.60815 | 21.09054 | 35599 ft | 425 kts | 316° |
| 2026-05-04 16:28 | 46.66761 | 20.99836 | 34295 ft | 414 kts | 316° |
| 2026-05-04 16:28 | 46.72629 | 20.90696 | 32845 ft | 403 kts | 316° |
| 2026-05-04 16:29 | 46.80156 | 20.78923 | 31084 ft | 390 kts | 316° |
| 2026-05-04 16:30 | 46.85651 | 20.70297 | 29729 ft | 383 kts | 316° |
| 2026-05-04 16:31 | 46.89244 | 20.64641 | 28844 ft | 376 kts | 316° |
| 2026-05-04 16:31 | 46.94504 | 20.56339 | 27531 ft | 366 kts | 316° |
| 2026-05-04 16:32 | 46.99639 | 20.48209 | 26294 ft | 359 kts | 315° |
| 2026-05-04 16:33 | 47.03005 | 20.42868 | 25487 ft | 355 kts | 315° |
| 2026-05-04 16:33 | 47.06328 | 20.37583 | 24685 ft | 351 kts | 315° |
| 2026-05-04 16:34 | 47.09627 | 20.32327 | 23900 ft | 349 kts | 315° |
| 2026-05-04 16:34 | 47.11266 | 20.29712 | 23490 ft | 348 kts | 315° |
| 2026-05-04 16:35 | 47.16144 | 20.21922 | 22209 ft | 342 kts | 315° |
| 2026-05-04 16:35 | 47.20973 | 20.14335 | 21064 ft | 335 kts | 316° |
| 2026-05-04 16:36 | 47.22555 | 20.11847 | 20676 ft | 333 kts | 315° |
| 2026-05-04 16:36 | 47.25699 | 20.06892 | 19923 ft | 330 kts | 315° |
| 2026-05-04 16:37 | 47.28815 | 20.01967 | 19173 ft | 327 kts | 315° |
| 2026-05-04 16:37 | 47.30357 | 19.99529 | 18799 ft | 326 kts | 315° |
| 2026-05-04 16:37 | 47.33435 | 19.94651 | 17992 ft | 324 kts | 315° |
| 2026-05-04 16:38 | 47.36496 | 19.89798 | 17185 ft | 321 kts | 315° |
| 2026-05-04 16:39 | 47.39139 | 19.81253 | 16064 ft | 319 kts | 263° |
| 2026-05-04 16:39 | 47.37970 | 19.74946 | 15333 ft | 318 kts | 254° |
| 2026-05-04 16:40 | 47.36714 | 19.68697 | 14590 ft | 318 kts | 254° |
| 2026-05-04 16:40 | 47.35550 | 19.62406 | 13800 ft | 314 kts | 264° |
| 2026-05-04 16:41 | 47.36705 | 19.56445 | 13030 ft | 305 kts | 310° |
| 2026-05-04 16:41 | 47.40977 | 19.49581 | 11977 ft | 302 kts | 315° |
| 2026-05-04 16:42 | 47.45259 | 19.42788 | 10919 ft | 301 kts | 314° |
| 2026-05-04 16:43 | 47.48101 | 19.38224 | 10288 ft | 298 kts | 314° |
| 2026-05-04 16:43 | 47.50811 | 19.33852 | 9916 ft | 285 kts | 313° |
| 2026-05-04 16:43 | 47.52164 | 19.31665 | 9554 ft | 285 kts | 313° |
| 2026-05-04 16:44 | 47.57469 | 19.23076 | 8280 ft | 280 kts | 313° |
| 2026-05-04 16:45 | 47.60084 | 19.18832 | 7661 ft | 279 kts | 313° |
| 2026-05-04 16:46 | 47.63872 | 19.12371 | 6634 ft | 274 kts | 294° |
| 2026-05-04 16:46 | 47.63565 | 19.07066 | 6011 ft | 262 kts | 247° |
| 2026-05-04 16:47 | 47.61769 | 19.02533 | 4591 ft | 254 kts | 208° |
| 2026-05-04 16:47 | 47.58638 | 19.03073 | 3410 ft | 234 kts | 134° |
| 2026-05-04 16:48 | 47.55696 | 19.07667 | 3006 ft | 188 kts | 134° |
| 2026-05-04 16:48 | 47.54842 | 19.09053 | 3016 ft | 176 kts | 134° |
| 2026-05-04 16:49 | 47.53390 | 19.11423 | 2961 ft | 126 kts | 136° |
| 2026-05-04 16:49 | 47.52131 | 19.13491 | 3008 ft | 154 kts | 132° |
| 2026-05-04 16:50 | 47.50735 | 19.15740 | 2694 ft | 147 kts | 135° |
| 2026-05-04 16:50 | 47.49580 | 19.17603 | 1903 ft | 143 kts | 135° |
| 2026-05-04 16:51 | 47.48322 | 19.19633 | 1635 ft | 153 kts | 134° |
| 2026-05-04 16:51 | 47.47622 | 19.20768 | 1409 ft | 143 kts | 134° |
| 2026-05-04 16:51 | 47.46340 | 19.22854 | 1074 ft | 137 kts | 134° |
| 2026-05-04 16:52 | 47.45058 | 19.24978 | 672 ft | 145 kts | 136° |
| 2026-05-04 16:52 | 47.44369 | 19.26048 | 506 ft | 140 kts | 137° |
| 2026-05-04 16:53 | 47.43385 | 19.27616 | 469 ft | 61 kts | 132° |
| 2026-05-04 16:53 | 47.42909 | 19.28335 | 456 ft | 17 kts | 173° |
| 2026-05-04 16:54 | 47.42830 | 19.28291 | 454 ft | 0 kts | 219° |